sensor_id;sensor_type;location;lat;lon;timestamp;P1;durP1;ratioP1;P2;durP2;ratioP2
77705;SDS011;66874;45.274;5.880;2023-03-12T00:01:50;9.07;;;4.18;;
77705;SDS011;66874;45.274;5.880;2023-03-12T00:04:15;7.57;;;4.57;;
77705;SDS011;66874;45.274;5.880;2023-03-12T00:06:41;9.05;;;4.30;;
77705;SDS011;66874;45.274;5.880;2023-03-12T00:09:06;9.60;;;4.28;;
77705;SDS011;66874;45.274;5.880;2023-03-12T00:11:33;7.97;;;4.53;;
77705;SDS011;66874;45.274;5.880;2023-03-12T00:13:59;7.78;;;4.57;;
77705;SDS011;66874;45.274;5.880;2023-03-12T00:16:25;8.25;;;3.97;;
77705;SDS011;66874;45.274;5.880;2023-03-12T00:18:51;11.98;;;4.75;;
77705;SDS011;66874;45.274;5.880;2023-03-12T00:21:17;6.82;;;3.67;;
77705;SDS011;66874;45.274;5.880;2023-03-12T00:23:45;7.05;;;3.22;;
77705;SDS011;66874;45.274;5.880;2023-03-12T00:26:12;10.82;;;3.83;;
77705;SDS011;66874;45.274;5.880;2023-03-12T00:28:39;11.60;;;4.30;;
77705;SDS011;66874;45.274;5.880;2023-03-12T03:00:26;14.13;;;6.55;;
77705;SDS011;66874;45.274;5.880;2023-03-12T03:02:54;13.45;;;7.05;;
77705;SDS011;66874;45.274;5.880;2023-03-12T03:05:20;11.73;;;7.88;;
77705;SDS011;66874;45.274;5.880;2023-03-12T03:07:45;11.60;;;6.63;;
77705;SDS011;66874;45.274;5.880;2023-03-12T03:10:11;10.57;;;7.18;;
77705;SDS011;66874;45.274;5.880;2023-03-12T03:12:36;12.85;;;6.65;;
77705;SDS011;66874;45.274;5.880;2023-03-12T03:15:02;10.65;;;7.07;;
77705;SDS011;66874;45.274;5.880;2023-03-12T03:17:28;12.30;;;6.03;;
77705;SDS011;66874;45.274;5.880;2023-03-12T03:19:54;9.50;;;5.90;;
77705;SDS011;66874;45.274;5.880;2023-03-12T03:22:20;10.63;;;6.00;;
77705;SDS011;66874;45.274;5.880;2023-03-12T03:24:46;10.85;;;5.72;;
77705;SDS011;66874;45.274;5.880;2023-03-12T03:27:12;11.00;;;6.22;;
77705;SDS011;66874;45.274;5.880;2023-03-12T03:29:38;10.43;;;5.88;;
77705;SDS011;66874;45.274;5.880;2023-03-12T06:30:47;16.48;;;8.40;;
77705;SDS011;66874;45.274;5.880;2023-03-12T06:33:12;13.40;;;7.93;;
77705;SDS011;66874;45.274;5.880;2023-03-12T06:35:38;16.15;;;8.60;;
77705;SDS011;66874;45.274;5.880;2023-03-12T06:38:03;17.10;;;9.07;;
77705;SDS011;66874;45.274;5.880;2023-03-12T06:40:29;22.98;;;10.80;;
77705;SDS011;66874;45.274;5.880;2023-03-12T06:42:54;25.67;;;11.30;;
77705;SDS011;66874;45.274;5.880;2023-03-12T06:45:19;22.80;;;10.27;;
77705;SDS011;66874;45.274;5.880;2023-03-12T06:47:45;22.67;;;11.80;;
77705;SDS011;66874;45.274;5.880;2023-03-12T06:50:10;23.10;;;10.73;;
77705;SDS011;66874;45.274;5.880;2023-03-12T06:52:36;16.20;;;9.48;;
77705;SDS011;66874;45.274;5.880;2023-03-12T06:55:01;15.93;;;8.55;;
77705;SDS011;66874;45.274;5.880;2023-03-12T06:57:26;16.58;;;9.55;;
77705;SDS011;66874;45.274;5.880;2023-03-12T06:59:52;21.17;;;9.80;;
77705;SDS011;66874;45.274;5.880;2023-03-12T07:02:17;18.23;;;10.48;;
77705;SDS011;66874;45.274;5.880;2023-03-12T07:04:43;18.05;;;10.00;;
77705;SDS011;66874;45.274;5.880;2023-03-12T07:07:08;17.42;;;9.80;;
77705;SDS011;66874;45.274;5.880;2023-03-12T07:09:35;18.90;;;9.40;;
77705;SDS011;66874;45.274;5.880;2023-03-12T07:12:01;17.85;;;10.02;;
77705;SDS011;66874;45.274;5.880;2023-03-12T07:14:28;20.17;;;9.90;;
77705;SDS011;66874;45.274;5.880;2023-03-12T07:16:53;14.93;;;8.63;;
77705;SDS011;66874;45.274;5.880;2023-03-12T07:19:20;19.30;;;10.68;;
77705;SDS011;66874;45.274;5.880;2023-03-12T07:21:45;19.17;;;10.93;;
77705;SDS011;66874;45.274;5.880;2023-03-12T07:24:10;18.92;;;9.88;;
77705;SDS011;66874;45.274;5.880;2023-03-12T07:26:36;27.85;;;12.13;;
77705;SDS011;66874;45.274;5.880;2023-03-12T07:29:02;25.00;;;11.15;;
77705;SDS011;66874;45.274;5.880;2023-03-12T07:31:29;23.52;;;11.50;;
77705;SDS011;66874;45.274;5.880;2023-03-12T07:34:01;22.10;;;10.75;;
77705;SDS011;66874;45.274;5.880;2023-03-12T07:36:27;26.50;;;11.40;;
77705;SDS011;66874;45.274;5.880;2023-03-12T07:38:53;21.65;;;10.82;;
77705;SDS011;66874;45.274;5.880;2023-03-12T07:41:19;20.23;;;10.18;;
77705;SDS011;66874;45.274;5.880;2023-03-12T07:43:44;19.38;;;9.88;;
77705;SDS011;66874;45.274;5.880;2023-03-12T07:46:10;21.42;;;10.57;;
77705;SDS011;66874;45.274;5.880;2023-03-12T07:48:35;17.67;;;9.65;;
77705;SDS011;66874;45.274;5.880;2023-03-12T07:51:00;19.10;;;10.68;;
77705;SDS011;66874;45.274;5.880;2023-03-12T07:53:26;18.80;;;10.30;;
77705;SDS011;66874;45.274;5.880;2023-03-12T07:55:51;16.77;;;9.20;;
77705;SDS011;66874;45.274;5.880;2023-03-12T07:58:17;17.02;;;9.13;;
77705;SDS011;66874;45.274;5.880;2023-03-12T08:00:42;17.48;;;9.48;;
77705;SDS011;66874;45.274;5.880;2023-03-12T08:03:08;15.70;;;9.02;;
77705;SDS011;66874;45.274;5.880;2023-03-12T08:05:34;19.08;;;10.02;;
77705;SDS011;66874;45.274;5.880;2023-03-12T08:07:59;17.42;;;10.60;;
77705;SDS011;66874;45.274;5.880;2023-03-12T08:10:25;17.75;;;8.88;;
77705;SDS011;66874;45.274;5.880;2023-03-12T08:12:50;17.80;;;9.82;;
77705;SDS011;66874;45.274;5.880;2023-03-12T08:15:16;17.73;;;9.90;;
77705;SDS011;66874;45.274;5.880;2023-03-12T08:17:41;14.93;;;8.73;;
77705;SDS011;66874;45.274;5.880;2023-03-12T08:20:07;14.40;;;8.07;;
77705;SDS011;66874;45.274;5.880;2023-03-12T08:22:34;15.80;;;9.10;;
77705;SDS011;66874;45.274;5.880;2023-03-12T08:25:03;15.77;;;8.40;;
77705;SDS011;66874;45.274;5.880;2023-03-12T08:27:29;14.98;;;7.45;;
77705;SDS011;66874;45.274;5.880;2023-03-12T08:29:54;16.95;;;9.20;;
77705;SDS011;66874;45.274;5.880;2023-03-12T08:32:20;14.50;;;9.00;;
77705;SDS011;66874;45.274;5.880;2023-03-12T08:34:45;17.88;;;10.30;;
77705;SDS011;66874;45.274;5.880;2023-03-12T08:37:11;15.18;;;9.02;;
77705;SDS011;66874;45.274;5.880;2023-03-12T08:39:36;16.50;;;9.45;;
77705;SDS011;66874;45.274;5.880;2023-03-12T08:42:02;15.07;;;9.23;;
77705;SDS011;66874;45.274;5.880;2023-03-12T08:44:28;15.88;;;9.32;;
77705;SDS011;66874;45.274;5.880;2023-03-12T08:46:53;18.92;;;9.88;;
77705;SDS011;66874;45.274;5.880;2023-03-12T08:49:19;19.40;;;10.88;;
77705;SDS011;66874;45.274;5.880;2023-03-12T08:51:45;16.45;;;10.38;;
77705;SDS011;66874;45.274;5.880;2023-03-12T08:54:11;15.70;;;9.90;;
77705;SDS011;66874;45.274;5.880;2023-03-12T08:56:37;13.98;;;8.52;;
77705;SDS011;66874;45.274;5.880;2023-03-12T08:59:06;13.00;;;9.30;;
77705;SDS011;66874;45.274;5.880;2023-03-12T09:01:32;14.50;;;8.40;;
77705;SDS011;66874;45.274;5.880;2023-03-12T09:03:57;14.85;;;8.52;;
77705;SDS011;66874;45.274;5.880;2023-03-12T09:06:22;16.77;;;9.10;;
77705;SDS011;66874;45.274;5.880;2023-03-12T09:08:48;15.95;;;9.70;;
77705;SDS011;66874;45.274;5.880;2023-03-12T09:11:15;14.63;;;9.32;;
77705;SDS011;66874;45.274;5.880;2023-03-12T09:13:41;10.63;;;7.65;;
77705;SDS011;66874;45.274;5.880;2023-03-12T09:16:07;10.95;;;7.22;;
77705;SDS011;66874;45.274;5.880;2023-03-12T09:18:33;11.80;;;7.72;;
77705;SDS011;66874;45.274;5.880;2023-03-12T09:20:59;11.13;;;7.40;;
77705;SDS011;66874;45.274;5.880;2023-03-12T09:23:25;13.40;;;8.02;;
77705;SDS011;66874;45.274;5.880;2023-03-12T09:25:51;10.65;;;6.63;;
77705;SDS011;66874;45.274;5.880;2023-03-12T09:28:17;10.32;;;7.00;;
77705;SDS011;66874;45.274;5.880;2023-03-12T09:30:43;10.13;;;6.55;;
77705;SDS011;66874;45.274;5.880;2023-03-12T09:33:08;9.63;;;6.25;;
77705;SDS011;66874;45.274;5.880;2023-03-12T09:35:34;9.68;;;6.25;;
77705;SDS011;66874;45.274;5.880;2023-03-12T09:38:00;6.80;;;5.10;;
77705;SDS011;66874;45.274;5.880;2023-03-12T09:40:27;7.70;;;5.15;;
77705;SDS011;66874;45.274;5.880;2023-03-12T09:45:27;7.15;;;4.03;;
77705;SDS011;66874;45.274;5.880;2023-03-12T09:48:00;7.72;;;5.57;;
77705;SDS011;66874;45.274;5.880;2023-03-12T09:50:35;5.15;;;3.80;;
77705;SDS011;66874;45.274;5.880;2023-03-12T09:55:39;6.32;;;4.55;;
77705;SDS011;66874;45.274;5.880;2023-03-12T09:58:18;7.30;;;4.85;;
77705;SDS011;66874;45.274;5.880;2023-03-12T10:00:50;8.57;;;4.97;;
77705;SDS011;66874;45.274;5.880;2023-03-12T10:06:28;5.82;;;4.22;;
77705;SDS011;66874;45.274;5.880;2023-03-12T10:14:09;5.90;;;3.97;;
77705;SDS011;66874;45.274;5.880;2023-03-12T10:27:39;4.32;;;2.90;;
77705;SDS011;66874;45.274;5.880;2023-03-12T10:30:13;4.90;;;2.60;;
77705;SDS011;66874;45.274;5.880;2023-03-12T10:32:50;3.38;;;2.15;;
77705;SDS011;66874;45.274;5.880;2023-03-12T10:35:23;3.72;;;2.63;;
77705;SDS011;66874;45.274;5.880;2023-03-12T10:40:22;3.30;;;3.00;;
77705;SDS011;66874;45.274;5.880;2023-03-12T10:42:52;5.35;;;2.40;;
77705;SDS011;66874;45.274;5.880;2023-03-12T10:47:56;1.45;;;1.13;;
77705;SDS011;66874;45.274;5.880;2023-03-12T10:50:27;4.65;;;2.10;;
77705;SDS011;66874;45.274;5.880;2023-03-12T10:55:59;4.40;;;2.50;;
77705;SDS011;66874;45.274;5.880;2023-03-12T10:58:25;4.50;;;1.85;;
77705;SDS011;66874;45.274;5.880;2023-03-12T11:00:55;2.30;;;1.08;;
77705;SDS011;66874;45.274;5.880;2023-03-12T11:03:23;2.60;;;0.70;;
77705;SDS011;66874;45.274;5.880;2023-03-12T11:05:51;1.98;;;0.60;;
77705;SDS011;66874;45.274;5.880;2023-03-12T11:08:39;2.85;;;0.50;;
77705;SDS011;66874;45.274;5.880;2023-03-12T11:11:04;2.88;;;1.85;;
77705;SDS011;66874;45.274;5.880;2023-03-12T11:18:40;2.08;;;1.30;;
77705;SDS011;66874;45.274;5.880;2023-03-12T11:24:02;1.30;;;1.10;;
77705;SDS011;66874;45.274;5.880;2023-03-12T11:26:37;2.75;;;1.27;;
77705;SDS011;66874;45.274;5.880;2023-03-12T11:32:05;1.73;;;0.85;;
77705;SDS011;66874;45.274;5.880;2023-03-12T11:34:39;1.02;;;0.45;;
77705;SDS011;66874;45.274;5.880;2023-03-12T11:56:06;1.10;;;0.30;;
77705;SDS011;66874;45.274;5.880;2023-03-12T11:58:51;0.85;;;0.40;;
77705;SDS011;66874;45.274;5.880;2023-03-12T12:12:07;3.83;;;1.10;;
77705;SDS011;66874;45.274;5.880;2023-03-12T12:14:48;0.85;;;0.80;;
77705;SDS011;66874;45.274;5.880;2023-03-12T12:20:03;1.10;;;1.00;;
77705;SDS011;66874;45.274;5.880;2023-03-12T12:30:26;1.73;;;0.70;;
77705;SDS011;66874;45.274;5.880;2023-03-12T12:35:59;2.05;;;0.90;;
77705;SDS011;66874;45.274;5.880;2023-03-12T12:41:22;0.88;;;0.52;;
77705;SDS011;66874;45.274;5.880;2023-03-12T12:43:56;3.05;;;0.70;;
77705;SDS011;66874;45.274;5.880;2023-03-12T12:46:27;0.68;;;0.65;;
77705;SDS011;66874;45.274;5.880;2023-03-12T12:48:58;4.00;;;0.80;;
77705;SDS011;66874;45.274;5.880;2023-03-12T12:51:31;0.85;;;0.60;;
77705;SDS011;66874;45.274;5.880;2023-03-12T12:56:45;1.23;;;0.57;;
77705;SDS011;66874;45.274;5.880;2023-03-12T12:59:31;0.85;;;0.52;;
77705;SDS011;66874;45.274;5.880;2023-03-12T13:01:59;1.48;;;0.75;;
77705;SDS011;66874;45.274;5.880;2023-03-12T13:04:36;1.80;;;0.60;;
77705;SDS011;66874;45.274;5.880;2023-03-12T13:07:27;1.10;;;0.65;;
77705;SDS011;66874;45.274;5.880;2023-03-12T13:09:58;1.90;;;0.65;;
77705;SDS011;66874;45.274;5.880;2023-03-12T13:14:54;0.80;;;0.63;;
77705;SDS011;66874;45.274;5.880;2023-03-12T13:17:32;0.57;;;0.57;;
77705;SDS011;66874;45.274;5.880;2023-03-12T13:22:52;0.77;;;0.60;;
77705;SDS011;66874;45.274;5.880;2023-03-12T13:25:56;1.38;;;0.57;;
77705;SDS011;66874;45.274;5.880;2023-03-12T13:31:00;1.05;;;0.45;;
77705;SDS011;66874;45.274;5.880;2023-03-12T13:33:40;1.10;;;0.60;;
77705;SDS011;66874;45.274;5.880;2023-03-12T13:46:47;1.10;;;0.50;;
77705;SDS011;66874;45.274;5.880;2023-03-12T13:49:23;0.80;;;0.40;;
77705;SDS011;66874;45.274;5.880;2023-03-12T13:54:26;0.43;;;0.40;;
77705;SDS011;66874;45.274;5.880;2023-03-12T13:56:56;1.25;;;0.40;;
77705;SDS011;66874;45.274;5.880;2023-03-12T13:59:25;1.60;;;0.40;;
77705;SDS011;66874;45.274;5.880;2023-03-12T14:01:53;2.00;;;0.63;;
77705;SDS011;66874;45.274;5.880;2023-03-12T14:04:29;1.25;;;0.47;;
77705;SDS011;66874;45.274;5.880;2023-03-12T14:17:45;3.00;;;0.47;;
77705;SDS011;66874;45.274;5.880;2023-03-12T14:20:16;1.73;;;0.60;;
77705;SDS011;66874;45.274;5.880;2023-03-12T14:22:44;1.13;;;0.50;;
77705;SDS011;66874;45.274;5.880;2023-03-12T14:27:58;0.68;;;0.50;;
77705;SDS011;66874;45.274;5.880;2023-03-12T14:33:26;6.50;;;0.80;;
77705;SDS011;66874;45.274;5.880;2023-03-12T14:36:06;1.42;;;0.60;;
77705;SDS011;66874;45.274;5.880;2023-03-12T14:38:40;3.22;;;0.63;;
77705;SDS011;66874;45.274;5.880;2023-03-12T14:41:10;0.90;;;0.60;;
77705;SDS011;66874;45.274;5.880;2023-03-12T14:43:42;1.15;;;0.50;;
77705;SDS011;66874;45.274;5.880;2023-03-12T14:46:20;2.38;;;0.70;;
77705;SDS011;66874;45.274;5.880;2023-03-12T14:48:47;1.08;;;0.50;;
77705;SDS011;66874;45.274;5.880;2023-03-12T14:51:34;2.25;;;0.50;;
77705;SDS011;66874;45.274;5.880;2023-03-12T14:54:03;0.93;;;0.50;;
77705;SDS011;66874;45.274;5.880;2023-03-12T14:56:32;2.50;;;0.60;;
77705;SDS011;66874;45.274;5.880;2023-03-12T14:59:23;4.45;;;0.63;;
77705;SDS011;66874;45.274;5.880;2023-03-12T15:01:47;1.58;;;0.43;;
77705;SDS011;66874;45.274;5.880;2023-03-12T15:04:16;2.92;;;0.40;;
77705;SDS011;66874;45.274;5.880;2023-03-12T15:06:47;1.75;;;0.60;;
77705;SDS011;66874;45.274;5.880;2023-03-12T15:09:18;2.80;;;0.70;;
77705;SDS011;66874;45.274;5.880;2023-03-12T15:11:55;1.38;;;0.65;;
77705;SDS011;66874;45.274;5.880;2023-03-12T15:14:23;1.50;;;0.70;;
77705;SDS011;66874;45.274;5.880;2023-03-12T15:16:51;0.93;;;0.63;;
77705;SDS011;66874;45.274;5.880;2023-03-12T15:19:31;1.77;;;0.60;;
77705;SDS011;66874;45.274;5.880;2023-03-12T15:21:59;1.17;;;0.50;;
77705;SDS011;66874;45.274;5.880;2023-03-12T15:24:25;1.07;;;0.57;;
77705;SDS011;66874;45.274;5.880;2023-03-12T15:26:54;6.85;;;0.80;;
77705;SDS011;66874;45.274;5.880;2023-03-12T15:29:24;4.43;;;0.60;;
77705;SDS011;66874;45.274;5.880;2023-03-12T15:32:00;5.38;;;0.75;;
77705;SDS011;66874;45.274;5.880;2023-03-12T15:34:37;1.17;;;0.47;;
77705;SDS011;66874;45.274;5.880;2023-03-12T15:40:03;3.13;;;0.68;;
77705;SDS011;66874;45.274;5.880;2023-03-12T15:42:50;2.05;;;0.60;;
77705;SDS011;66874;45.274;5.880;2023-03-12T15:45:37;0.90;;;0.45;;
77705;SDS011;66874;45.274;5.880;2023-03-12T15:48:04;2.30;;;0.50;;
77705;SDS011;66874;45.274;5.880;2023-03-12T15:50:47;0.80;;;0.52;;
77705;SDS011;66874;45.274;5.880;2023-03-12T15:55:38;3.53;;;0.93;;
77705;SDS011;66874;45.274;5.880;2023-03-12T16:00:50;5.72;;;0.90;;
77705;SDS011;66874;45.274;5.880;2023-03-12T16:03:17;1.00;;;0.60;;
77705;SDS011;66874;45.274;5.880;2023-03-12T16:05:44;2.20;;;0.55;;
77705;SDS011;66874;45.274;5.880;2023-03-12T16:08:26;0.52;;;0.40;;
77705;SDS011;66874;45.274;5.880;2023-03-12T16:10:58;1.85;;;0.57;;
77705;SDS011;66874;45.274;5.880;2023-03-12T16:13:28;0.88;;;0.40;;
77705;SDS011;66874;45.274;5.880;2023-03-12T16:15:55;2.05;;;0.40;;
77705;SDS011;66874;45.274;5.880;2023-03-12T16:18:22;1.97;;;0.50;;
77705;SDS011;66874;45.274;5.880;2023-03-12T16:20:49;1.00;;;0.50;;
77705;SDS011;66874;45.274;5.880;2023-03-12T16:23:15;2.88;;;0.70;;
77705;SDS011;66874;45.274;5.880;2023-03-12T16:25:41;0.80;;;0.40;;
77705;SDS011;66874;45.274;5.880;2023-03-12T16:28:09;1.25;;;0.45;;
77705;SDS011;66874;45.274;5.880;2023-03-12T16:30:38;1.23;;;0.40;;
77705;SDS011;66874;45.274;5.880;2023-03-12T16:33:04;1.95;;;0.45;;
77705;SDS011;66874;45.274;5.880;2023-03-12T16:35:30;1.02;;;0.50;;
77705;SDS011;66874;45.274;5.880;2023-03-12T16:37:56;1.48;;;0.43;;
77705;SDS011;66874;45.274;5.880;2023-03-12T16:40:25;2.10;;;0.50;;
77705;SDS011;66874;45.274;5.880;2023-03-12T16:45:19;1.02;;;0.52;;
77705;SDS011;66874;45.274;5.880;2023-03-12T16:47:45;5.10;;;0.75;;
77705;SDS011;66874;45.274;5.880;2023-03-12T16:50:21;1.58;;;0.73;;
77705;SDS011;66874;45.274;5.880;2023-03-12T16:52:47;1.08;;;0.52;;
77705;SDS011;66874;45.274;5.880;2023-03-12T16:55:17;1.23;;;0.50;;
77705;SDS011;66874;45.274;5.880;2023-03-12T16:57:48;3.10;;;0.75;;
77705;SDS011;66874;45.274;5.880;2023-03-12T17:00:19;1.40;;;0.50;;
77705;SDS011;66874;45.274;5.880;2023-03-12T17:02:51;5.65;;;0.60;;
77705;SDS011;66874;45.274;5.880;2023-03-12T17:05:21;1.45;;;0.88;;
77705;SDS011;66874;45.274;5.880;2023-03-12T17:07:47;2.80;;;1.00;;
77705;SDS011;66874;45.274;5.880;2023-03-12T17:10:13;2.22;;;1.05;;
77705;SDS011;66874;45.274;5.880;2023-03-12T17:12:39;2.72;;;1.50;;
77705;SDS011;66874;45.274;5.880;2023-03-12T17:15:13;5.65;;;1.27;;
77705;SDS011;66874;45.274;5.880;2023-03-12T17:17:42;2.60;;;1.23;;
77705;SDS011;66874;45.274;5.880;2023-03-12T17:20:07;3.25;;;1.80;;
77705;SDS011;66874;45.274;5.880;2023-03-12T17:22:37;3.67;;;2.10;;
77705;SDS011;66874;45.274;5.880;2023-03-12T17:25:03;3.47;;;1.77;;
77705;SDS011;66874;45.274;5.880;2023-03-12T17:27:29;4.30;;;1.70;;
77705;SDS011;66874;45.274;5.880;2023-03-12T17:29:54;3.88;;;2.10;;
77705;SDS011;66874;45.274;5.880;2023-03-12T17:32:20;6.07;;;3.30;;
77705;SDS011;66874;45.274;5.880;2023-03-12T17:34:45;8.85;;;5.28;;
77705;SDS011;66874;45.274;5.880;2023-03-12T17:37:10;9.02;;;6.55;;
77705;SDS011;66874;45.274;5.880;2023-03-12T17:39:36;9.85;;;6.22;;
77705;SDS011;66874;45.274;5.880;2023-03-12T17:42:01;8.98;;;6.32;;
77705;SDS011;66874;45.274;5.880;2023-03-12T17:44:30;9.65;;;5.82;;
77705;SDS011;66874;45.274;5.880;2023-03-12T17:46:58;8.15;;;5.55;;
77705;SDS011;66874;45.274;5.880;2023-03-12T17:49:25;8.37;;;4.60;;
77705;SDS011;66874;45.274;5.880;2023-03-12T17:51:51;12.32;;;5.65;;
77705;SDS011;66874;45.274;5.880;2023-03-12T17:54:16;6.43;;;3.40;;
77705;SDS011;66874;45.274;5.880;2023-03-12T17:56:42;5.88;;;4.28;;
77705;SDS011;66874;45.274;5.880;2023-03-12T17:59:07;14.15;;;8.15;;
77705;SDS011;66874;45.274;5.880;2023-03-12T18:01:33;18.85;;;10.82;;
77705;SDS011;66874;45.274;5.880;2023-03-12T18:03:58;18.20;;;10.80;;
77705;SDS011;66874;45.274;5.880;2023-03-12T18:06:23;21.13;;;8.98;;
77705;SDS011;66874;45.274;5.880;2023-03-12T18:08:49;71.93;;;42.58;;
77705;SDS011;66874;45.274;5.880;2023-03-12T18:11:14;22.02;;;14.00;;
77705;SDS011;66874;45.274;5.880;2023-03-12T18:13:40;9.02;;;6.10;;
77705;SDS011;66874;45.274;5.880;2023-03-12T18:16:05;17.80;;;8.68;;
77705;SDS011;66874;45.274;5.880;2023-03-12T18:18:31;10.50;;;6.47;;
77705;SDS011;66874;45.274;5.880;2023-03-12T18:20:56;14.32;;;9.45;;
77705;SDS011;66874;45.274;5.880;2023-03-12T18:23:21;16.08;;;9.23;;
77705;SDS011;66874;45.274;5.880;2023-03-12T18:25:49;26.20;;;11.00;;
77705;SDS011;66874;45.274;5.880;2023-03-12T18:28:14;14.20;;;7.50;;
77705;SDS011;66874;45.274;5.880;2023-03-12T18:30:40;10.50;;;5.32;;
77705;SDS011;66874;45.274;5.880;2023-03-12T18:33:06;12.38;;;5.53;;
77705;SDS011;66874;45.274;5.880;2023-03-12T18:35:31;11.05;;;6.32;;
77705;SDS011;66874;45.274;5.880;2023-03-12T18:37:57;11.18;;;5.95;;
77705;SDS011;66874;45.274;5.880;2023-03-12T18:40:23;10.57;;;5.72;;
77705;SDS011;66874;45.274;5.880;2023-03-12T18:42:48;7.22;;;4.60;;
77705;SDS011;66874;45.274;5.880;2023-03-12T18:45:14;10.70;;;5.60;;
77705;SDS011;66874;45.274;5.880;2023-03-12T18:47:41;9.85;;;5.97;;
77705;SDS011;66874;45.274;5.880;2023-03-12T18:50:09;11.13;;;6.95;;
77705;SDS011;66874;45.274;5.880;2023-03-12T18:52:36;22.20;;;9.67;;
77705;SDS011;66874;45.274;5.880;2023-03-12T18:55:02;19.65;;;12.13;;
77705;SDS011;66874;45.274;5.880;2023-03-12T18:57:28;15.38;;;8.68;;
77705;SDS011;66874;45.274;5.880;2023-03-12T18:59:53;15.20;;;8.57;;
77705;SDS011;66874;45.274;5.880;2023-03-12T19:02:19;13.52;;;7.32;;
77705;SDS011;66874;45.274;5.880;2023-03-12T19:04:45;16.33;;;9.63;;
77705;SDS011;66874;45.274;5.880;2023-03-12T19:07:10;19.48;;;11.40;;
77705;SDS011;66874;45.274;5.880;2023-03-12T19:09:36;22.40;;;12.65;;
77705;SDS011;66874;45.274;5.880;2023-03-12T19:12:01;18.65;;;11.48;;
77705;SDS011;66874;45.274;5.880;2023-03-12T19:14:27;19.08;;;10.98;;
77705;SDS011;66874;45.274;5.880;2023-03-12T19:16:53;14.65;;;9.55;;
77705;SDS011;66874;45.274;5.880;2023-03-12T19:19:19;16.50;;;8.57;;
77705;SDS011;66874;45.274;5.880;2023-03-12T19:21:45;14.70;;;8.57;;
77705;SDS011;66874;45.274;5.880;2023-03-12T19:24:12;15.57;;;8.23;;
77705;SDS011;66874;45.274;5.880;2023-03-12T19:26:37;15.50;;;9.15;;
77705;SDS011;66874;45.274;5.880;2023-03-12T19:29:03;21.00;;;12.55;;
77705;SDS011;66874;45.274;5.880;2023-03-12T19:31:28;24.73;;;12.77;;
77705;SDS011;66874;45.274;5.880;2023-03-12T19:33:55;25.60;;;16.35;;
77705;SDS011;66874;45.274;5.880;2023-03-12T19:36:20;22.45;;;12.73;;
77705;SDS011;66874;45.274;5.880;2023-03-12T19:38:46;28.77;;;15.88;;
77705;SDS011;66874;45.274;5.880;2023-03-12T19:41:12;33.78;;;18.27;;
77705;SDS011;66874;45.274;5.880;2023-03-12T19:43:37;38.08;;;18.13;;
77705;SDS011;66874;45.274;5.880;2023-03-12T19:46:04;23.08;;;12.25;;
77705;SDS011;66874;45.274;5.880;2023-03-12T19:48:29;29.05;;;14.35;;
77705;SDS011;66874;45.274;5.880;2023-03-12T19:50:55;23.15;;;13.30;;
77705;SDS011;66874;45.274;5.880;2023-03-12T19:53:20;13.65;;;7.55;;
77705;SDS011;66874;45.274;5.880;2023-03-12T19:55:49;16.08;;;8.57;;
77705;SDS011;66874;45.274;5.880;2023-03-12T19:58:15;17.70;;;11.15;;
77705;SDS011;66874;45.274;5.880;2023-03-12T20:00:41;18.40;;;10.80;;
77705;SDS011;66874;45.274;5.880;2023-03-12T20:03:07;18.27;;;10.07;;
77705;SDS011;66874;45.274;5.880;2023-03-12T20:05:32;15.63;;;9.25;;
77705;SDS011;66874;45.274;5.880;2023-03-12T20:07:58;15.75;;;9.80;;
77705;SDS011;66874;45.274;5.880;2023-03-12T20:10:23;16.27;;;9.70;;
77705;SDS011;66874;45.274;5.880;2023-03-12T20:12:49;20.42;;;9.90;;
77705;SDS011;66874;45.274;5.880;2023-03-12T20:15:15;18.65;;;9.55;;
77705;SDS011;66874;45.274;5.880;2023-03-12T20:17:40;18.27;;;11.25;;
77705;SDS011;66874;45.274;5.880;2023-03-12T20:20:06;17.83;;;10.23;;
77705;SDS011;66874;45.274;5.880;2023-03-12T20:22:32;15.27;;;9.38;;
77705;SDS011;66874;45.274;5.880;2023-03-12T20:25:00;13.77;;;8.85;;
77705;SDS011;66874;45.274;5.880;2023-03-12T20:27:27;20.07;;;11.27;;
77705;SDS011;66874;45.274;5.880;2023-03-12T20:29:52;13.63;;;9.15;;
77705;SDS011;66874;45.274;5.880;2023-03-12T20:32:17;20.65;;;11.98;;
77705;SDS011;66874;45.274;5.880;2023-03-12T20:34:43;22.38;;;13.30;;
77705;SDS011;66874;45.274;5.880;2023-03-12T20:37:09;10.40;;;6.30;;
77705;SDS011;66874;45.274;5.880;2023-03-12T20:39:34;14.50;;;8.07;;
77705;SDS011;66874;45.274;5.880;2023-03-12T20:42:00;15.88;;;7.50;;
77705;SDS011;66874;45.274;5.880;2023-03-12T20:44:25;24.00;;;10.70;;
77705;SDS011;66874;45.274;5.880;2023-03-12T20:46:50;25.55;;;11.00;;
77705;SDS011;66874;45.274;5.880;2023-03-12T20:49:16;20.02;;;8.13;;
77705;SDS011;66874;45.274;5.880;2023-03-12T20:51:41;18.27;;;9.43;;
77705;SDS011;66874;45.274;5.880;2023-03-12T20:54:08;16.52;;;7.50;;
77705;SDS011;66874;45.274;5.880;2023-03-12T20:56:34;14.07;;;8.15;;
77705;SDS011;66874;45.274;5.880;2023-03-12T20:59:00;15.80;;;7.32;;
77705;SDS011;66874;45.274;5.880;2023-03-12T21:01:25;12.93;;;7.70;;
77705;SDS011;66874;45.274;5.880;2023-03-12T21:03:51;25.83;;;14.63;;
77705;SDS011;66874;45.274;5.880;2023-03-12T21:06:16;36.20;;;20.23;;
77705;SDS011;66874;45.274;5.880;2023-03-12T21:08:42;20.08;;;10.15;;
77705;SDS011;66874;45.274;5.880;2023-03-12T21:11:07;14.32;;;7.50;;
77705;SDS011;66874;45.274;5.880;2023-03-12T21:13:34;18.65;;;8.20;;
77705;SDS011;66874;45.274;5.880;2023-03-12T21:16:00;14.60;;;8.07;;
77705;SDS011;66874;45.274;5.880;2023-03-12T21:18:29;19.50;;;9.32;;
77705;SDS011;66874;45.274;5.880;2023-03-12T21:20:59;11.70;;;6.57;;
77705;SDS011;66874;45.274;5.880;2023-03-12T21:23:26;16.50;;;8.13;;
77705;SDS011;66874;45.274;5.880;2023-03-12T21:25:55;16.33;;;8.85;;
77705;SDS011;66874;45.274;5.880;2023-03-12T21:28:24;29.73;;;12.60;;
77705;SDS011;66874;45.274;5.880;2023-03-12T21:30:50;17.27;;;7.80;;
77705;SDS011;66874;45.274;5.880;2023-03-12T21:33:15;17.70;;;8.20;;
77705;SDS011;66874;45.274;5.880;2023-03-12T21:35:44;14.80;;;6.85;;
77705;SDS011;66874;45.274;5.880;2023-03-12T21:38:10;14.88;;;7.93;;
77705;SDS011;66874;45.274;5.880;2023-03-12T21:40:36;13.93;;;7.55;;
77705;SDS011;66874;45.274;5.880;2023-03-12T21:43:02;15.00;;;6.75;;
77705;SDS011;66874;45.274;5.880;2023-03-12T21:45:28;14.77;;;6.95;;
77705;SDS011;66874;45.274;5.880;2023-03-12T21:47:53;18.13;;;8.68;;
77705;SDS011;66874;45.274;5.880;2023-03-12T21:50:19;15.32;;;8.15;;
77705;SDS011;66874;45.274;5.880;2023-03-12T21:52:44;16.75;;;8.02;;
77705;SDS011;66874;45.274;5.880;2023-03-12T21:55:13;14.77;;;7.00;;
77705;SDS011;66874;45.274;5.880;2023-03-12T21:57:40;15.55;;;6.20;;
77705;SDS011;66874;45.274;5.880;2023-03-12T22:00:07;9.88;;;5.68;;
77705;SDS011;66874;45.274;5.880;2023-03-12T22:02:38;10.90;;;5.32;;
77705;SDS011;66874;45.274;5.880;2023-03-12T22:05:08;11.43;;;5.68;;
77705;SDS011;66874;45.274;5.880;2023-03-12T22:07:34;15.77;;;7.53;;
77705;SDS011;66874;45.274;5.880;2023-03-12T22:10:00;24.80;;;10.60;;
77705;SDS011;66874;45.274;5.880;2023-03-12T22:12:25;38.88;;;15.82;;
77705;SDS011;66874;45.274;5.880;2023-03-12T22:14:51;43.88;;;13.45;;
77705;SDS011;66874;45.274;5.880;2023-03-12T22:17:16;17.05;;;6.15;;
77705;SDS011;66874;45.274;5.880;2023-03-12T22:19:42;24.38;;;10.70;;
77705;SDS011;66874;45.274;5.880;2023-03-12T22:22:07;31.52;;;11.77;;
77705;SDS011;66874;45.274;5.880;2023-03-12T22:24:33;35.38;;;14.57;;
77705;SDS011;66874;45.274;5.880;2023-03-12T22:26:58;31.75;;;13.15;;
77705;SDS011;66874;45.274;5.880;2023-03-12T22:29:26;25.10;;;11.00;;
77705;SDS011;66874;45.274;5.880;2023-03-12T22:31:51;23.95;;;9.95;;